Time;durP1;ratioP1;P1;durP2;ratioP2;P2;SDS_P1;SDS_P2;PMS_P1;PMS_P2;Temp;Humidity;BMP_temperature;BMP_pressure;BME280_temperature;BME280_humidity;BME280_pressure;Samples;Min_cycle;Max_cycle;Signal;HPM_P1;HPM_P2
2022/09/15 00:00:16;;;;;;;5.22;3.90;;;15.30;99.90;;;;;;5052857;28;20029;-78
2022/09/15 00:02:43;;;;;;;3.65;3.45;;;15.30;99.90;;;;;;5053547;28;20017;-78
2022/09/15 00:05:09;;;;;;;4.97;3.67;;;15.30;99.90;;;;;;5053344;28;20032;-78
2022/09/15 00:07:35;;;;;;;6.20;4.15;;;15.30;99.90;;;;;;5052807;28;20025;-78
2022/09/15 00:10:02;;;;;;;4.43;4.07;;;15.30;99.90;;;;;;5053489;28;20082;-77
2022/09/15 00:12:28;;;;;;;7.38;4.75;;;15.20;99.90;;;;;;5053901;28;20037;-79
2022/09/15 00:14:55;;;;;;;5.80;4.28;;;15.20;99.90;;;;;;5053511;28;20477;-77
2022/09/15 00:17:21;;;;;;;4.90;3.95;;;15.10;99.90;;;;;;5053255;28;20389;-79
2022/09/15 00:19:47;;;;;;;4.20;3.80;;;15.10;99.90;;;;;;5053345;28;20005;-78
2022/09/15 00:22:12;;;;;;;4.55;4.05;;;15.00;99.90;;;;;;5053161;28;20025;-78
2022/09/15 00:24:39;;;;;;;8.25;4.47;;;15.00;99.90;;;;;;5052812;28;20045;-78
2022/09/15 00:27:05;;;;;;;7.80;4.57;;;14.90;99.90;;;;;;5054073;28;20083;-76
2022/09/15 00:29:30;;;;;;;5.30;4.28;;;14.90;99.90;;;;;;5052361;28;20025;-77
2022/09/15 00:31:56;;;;;;;4.68;4.10;;;14.80;99.90;;;;;;5053444;28;20079;-76
2022/09/15 00:34:22;;;;;;;8.45;4.93;;;14.80;99.90;;;;;;5053209;28;20094;-77
2022/09/15 00:36:47;;;;;;;4.50;4.10;;;14.80;99.90;;;;;;5053029;28;20123;-77
2022/09/15 00:39:16;;;;;;;4.13;3.80;;;14.70;99.90;;;;;;5052579;28;20460;-77
2022/09/15 00:41:41;;;;;;;5.03;4.53;;;14.70;99.90;;;;;;5052880;28;20091;-77
2022/09/15 00:44:19;;;;;;;5.05;4.07;;;14.60;99.90;;;;;;5052216;28;20057;-76
2022/09/15 00:46:50;;;;;;;6.35;4.13;;;14.60;99.90;;;;;;5053629;28;20384;-77
2022/09/15 00:49:21;;;;;;;4.55;3.97;;;14.60;99.90;;;;;;5052815;28;20530;-77
2022/09/15 00:51:46;;;;;;;;;;;14.50;99.90;;;;;;5053394;28;20033;-77
2022/09/15 00:54:17;;;;;;;5.93;3.15;;;14.50;99.90;;;;;;5052707;28;20383;-76
2022/09/15 00:56:46;;;;;;;4.45;3.40;;;14.50;99.90;;;;;;5042513;28;20021;-76
2022/09/15 00:59:16;;;;;;;6.82;2.88;;;14.50;99.90;;;;;;5050378;28;20025;-76
2022/09/15 01:01:44;;;;;;;5.15;2.60;;;14.50;99.90;;;;;;5052605;28;20039;-77
2022/09/15 01:04:11;;;;;;;5.55;2.75;;;14.50;99.90;;;;;;5051237;28;20044;-76
2022/09/15 01:06:44;;;;;;;8.43;2.95;;;14.50;99.90;;;;;;5052733;28;20028;-77
2022/09/15 01:09:15;;;;;;;3.85;2.72;;;14.60;99.90;;;;;;5050659;28;20021;-75
2022/09/15 01:11:41;;;;;;;6.85;2.80;;;14.60;99.90;;;;;;5052360;28;20027;-77
2022/09/15 01:14:07;;;;;;;3.63;2.47;;;14.70;99.90;;;;;;5051963;28;20123;-76
2022/09/15 01:17:02;;;;;;;4.20;2.80;;;14.60;99.90;;;;;;5052381;28;20025;-77
2022/09/15 01:19:59;;;;;;;4.43;3.45;;;14.70;99.90;;;;;;5052152;28;20033;-77
2022/09/15 01:22:42;;;;;;;6.45;2.97;;;14.80;99.90;;;;;;5052292;28;20029;-77
2022/09/15 01:25:13;;;;;;;4.00;2.70;;;14.80;99.90;;;;;;5051180;28;20409;-78
2022/09/15 01:27:45;;;;;;;3.58;2.80;;;14.90;99.90;;;;;;5052163;28;20028;-77
2022/09/15 01:30:21;;;;;;;4.80;3.03;;;14.90;99.90;;;;;;5051939;28;20025;-77
2022/09/15 01:33:18;;;;;;;4.70;2.58;;;15.00;99.90;;;;;;5051600;28;20044;-77
2022/09/15 01:35:52;;;;;;;4.07;2.75;;;15.00;99.90;;;;;;5051488;28;20036;-76
2022/09/15 01:38:40;;;;;;;3.05;2.80;;;15.10;99.90;;;;;;5051390;28;20032;-77
2022/09/15 01:41:16;;;;;;;3.80;3.30;;;15.10;99.90;;;;;;5044883;28;20033;-77
2022/09/15 01:44:08;;;;;;;5.63;3.25;;;15.10;99.90;;;;;;5052765;28;20469;-77
2022/09/15 01:46:45;;;;;;;3.95;3.65;;;15.10;99.90;;;;;;5048923;28;20022;-77
2022/09/15 01:49:20;;;;;;;5.32;3.58;;;15.20;99.90;;;;;;5042881;28;20064;-78
2022/09/15 01:51:49;;;;;;;5.15;4.40;;;15.20;99.90;;;;;;5047460;28;20035;-77
2022/09/15 01:54:19;;;;;;;5.05;4.47;;;15.20;99.90;;;;;;5054508;28;20052;-77
2022/09/15 01:56:45;;;;;;;7.85;5.18;;;15.20;99.90;;;;;;5055742;28;20021;-77
2022/09/15 01:59:11;;;;;;;6.22;5.47;;;15.10;99.90;;;;;;5040620;28;20080;-76
2022/09/15 02:01:50;;;;;;;7.78;5.03;;;15.10;99.90;;;;;;5055643;28;20022;-77
2022/09/15 02:04:29;;;;;;;7.40;4.87;;;15.10;99.90;;;;;;5055614;28;20024;-77
2022/09/15 02:07:06;;;;;;;7.50;5.95;;;15.10;99.90;;;;;;5056286;28;20367;-77
2022/09/15 02:09:41;;;;;;;6.32;5.82;;;15.10;99.90;;;;;;5056027;28;20021;-77
2022/09/15 02:12:22;;;;;;;6.07;5.55;;;15.10;99.90;;;;;;5055956;28;20025;-77
2022/09/15 02:15:04;;;;;;;6.00;5.40;;;15.10;99.90;;;;;;5050931;28;20022;-77
2022/09/15 02:17:34;;;;;;;9.40;5.88;;;15.20;99.90;;;;;;5048549;28;20029;-78
2022/09/15 02:20:25;;;;;;;9.27;5.18;;;15.20;99.90;;;;;;5055947;28;20481;-76
2022/09/15 02:22:56;;;;;;;7.78;3.90;;;15.10;99.90;;;;;;5055130;28;20028;-77
2022/09/15 02:25:31;;;;;;;11.63;4.20;;;15.30;99.90;;;;;;5055364;28;20064;-76
2022/09/15 02:28:03;;;;;;;4.78;3.47;;;15.30;99.90;;;;;;5055192;28;20021;-77
2022/09/15 02:30:30;;;;;;;9.57;3.85;;;15.30;99.90;;;;;;5055801;28;20021;-78
2022/09/15 02:33:00;;;;;;;8.63;3.72;;;15.40;99.90;;;;;;5055581;28;20472;-77
2022/09/15 02:35:28;;;;;;;4.18;2.90;;;15.50;99.90;;;;;;5055050;28;20033;-77
2022/09/15 02:37:55;;;;;;;6.18;3.80;;;15.50;99.90;;;;;;5055341;28;20063;-77
2022/09/15 02:40:21;;;;;;;7.28;4.25;;;15.50;99.90;;;;;;5055298;28;20029;-76
2022/09/15 02:42:53;;;;;;;11.63;3.33;;;15.40;99.90;;;;;;5055161;28;20021;-77
2022/09/15 02:45:19;;;;;;;4.13;3.33;;;15.50;99.90;;;;;;5055429;28;20047;-77
2022/09/15 02:47:44;;;;;;;6.75;3.42;;;15.50;99.90;;;;;;5045998;28;20052;-76
2022/09/15 02:50:10;;;;;;;4.15;3.38;;;15.40;99.90;;;;;;5048449;28;20021;-78
2022/09/15 02:52:36;;;;;;;6.47;4.20;;;15.40;99.90;;;;;;5055149;28;20519;-77
2022/09/15 02:55:01;;;;;;;3.85;3.42;;;15.40;99.90;;;;;;5055504;28;20373;-78
2022/09/15 02:57:27;;;;;;;6.47;3.47;;;15.30;99.90;;;;;;5054111;28;20044;-77
2022/09/15 03:00:12;;;;;;;6.35;4.30;;;15.40;99.90;;;;;;5055267;28;20025;-77
2022/09/15 03:02:45;;;;;;;9.95;3.80;;;15.30;99.90;;;;;;5054547;28;20017;-77
2022/09/15 03:05:12;;;;;;;4.47;3.70;;;15.30;99.90;;;;;;5055370;28;20045;-77
2022/09/15 03:07:38;;;;;;;6.40;3.47;;;15.20;99.90;;;;;;5055590;28;20052;-77
2022/09/15 03:10:05;;;;;;;5.22;3.50;;;15.30;99.90;;;;;;5054572;28;20060;-77
2022/09/15 03:12:46;;;;;;;5.13;3.97;;;15.20;99.90;;;;;;5055283;28;20036;-77
2022/09/15 03:15:14;;;;;;;8.60;4.10;;;15.30;99.90;;;;;;5055745;28;20053;-77
2022/09/15 03:17:41;;;;;;;4.55;3.97;;;15.20;99.90;;;;;;5054766;28;20143;-77
2022/09/15 03:20:09;;;;;;;5.38;3.70;;;15.20;99.90;;;;;;5060169;28;20033;-78
2022/09/15 03:22:35;;;;;;;5.28;4.05;;;15.10;99.90;;;;;;5060548;28;20503;-78
2022/09/15 03:25:00;;;;;;;4.88;4.40;;;15.10;99.90;;;;;;5058902;28;20045;-77
2022/09/15 03:27:26;;;;;;;4.57;4.13;;;15.00;99.90;;;;;;5058267;28;20044;-78
2022/09/15 03:29:52;;;;;;;4.57;3.67;;;15.00;99.90;;;;;;5059198;28;20041;-77
2022/09/15 03:32:18;;;;;;;4.45;3.83;;;15.00;99.90;;;;;;5059399;28;20091;-77
2022/09/15 03:34:44;;;;;;;8.80;4.60;;;15.00;99.90;;;;;;5059348;28;20384;-77
2022/09/15 03:37:10;;;;;;;9.02;4.45;;;14.90;99.90;;;;;;5055190;28;20025;-77
2022/09/15 03:39:36;;;;;;;7.20;4.05;;;15.00;99.90;;;;;;5052968;28;20032;-77
2022/09/15 03:42:02;;;;;;;5.88;4.50;;;15.00;99.90;;;;;;5054750;28;20176;-77
2022/09/15 03:44:27;;;;;;;7.72;4.53;;;14.90;99.90;;;;;;5053274;28;20116;-77
2022/09/15 03:46:53;;;;;;;8.20;5.10;;;14.90;99.90;;;;;;5052912;28;20025;-77
2022/09/15 03:49:18;;;;;;;8.63;5.65;;;14.90;99.90;;;;;;5053731;28;20024;-77
2022/09/15 03:51:44;;;;;;;4.85;4.40;;;14.90;99.90;;;;;;5053386;28;20404;-76
2022/09/15 03:54:10;;;;;;;4.93;4.47;;;14.90;99.90;;;;;;5053295;28;20045;-77
2022/09/15 03:56:35;;;;;;;8.93;5.28;;;14.80;99.90;;;;;;5053860;28;20029;-79
2022/09/15 03:59:02;;;;;;;7.03;5.72;;;14.90;99.90;;;;;;5053222;28;20025;-79
2022/09/15 04:01:29;;;;;;;5.40;4.95;;;14.90;99.90;;;;;;5053664;28;20086;-79
2022/09/15 04:03:56;;;;;;;8.68;5.68;;;14.90;99.90;;;;;;5053587;28;20071;-79
2022/09/15 04:06:22;;;;;;;6.68;5.40;;;14.90;99.90;;;;;;5052887;28;20416;-79
2022/09/15 04:08:49;;;;;;;4.97;4.63;;;14.80;99.90;;;;;;5053830;28;20033;-80
2022/09/15 04:11:16;;;;;;;11.68;5.55;;;14.80;99.90;;;;;;5053642;28;20021;-79
2022/09/15 04:13:42;;;;;;;6.50;5.70;;;14.80;99.90;;;;;;5053212;28;20506;-79
2022/09/15 04:16:11;;;;;;;8.50;5.50;;;14.80;99.90;;;;;;5054204;28;20025;-79
2022/09/15 04:18:37;;;;;;;9.05;5.25;;;14.80;99.90;;;;;;5053933;28;20028;-78
2022/09/15 04:21:14;;;;;;;8.68;6.03;;;14.80;99.90;;;;;;5052738;28;20078;-80
2022/09/15 04:23:43;;;;;;;6.53;5.82;;;14.70;99.90;;;;;;5053323;28;20048;-79
2022/09/15 04:26:30;;;;;;;7.05;6.40;;;14.70;99.90;;;;;;5053398;28;20071;-78
2022/09/15 04:28:56;;;;;;;7.65;5.93;;;14.60;99.90;;;;;;5053624;28;20051;-79
2022/09/15 04:31:21;;;;;;;8.90;5.50;;;14.60;99.90;;;;;;5053342;28;20013;-78
2022/09/15 04:33:50;;;;;;;10.90;6.32;;;14.60;99.90;;;;;;5053027;28;20041;-78
2022/09/15 04:36:22;;;;;;;5.75;5.25;;;14.60;99.90;;;;;;5053278;28;20033;-80
2022/09/15 04:38:49;;;;;;;7.63;6.05;;;14.60;99.90;;;;;;5054050;28;20024;-79
2022/09/15 04:41:15;;;;;;;8.23;5.82;;;14.50;99.90;;;;;;5051912;28;20017;-79
2022/09/15 04:43:44;;;;;;;5.97;5.47;;;14.60;99.90;;;;;;5054425;28;20511;-78
2022/09/15 04:46:11;;;;;;;6.95;5.60;;;14.60;99.90;;;;;;5052875;28;20108;-78
2022/09/15 04:48:37;;;;;;;6.00;5.40;;;14.60;99.90;;;;;;5050709;28;20419;-78
2022/09/15 04:51:05;;;;;;;8.57;6.40;;;14.60;99.90;;;;;;5040798;28;20103;-77
2022/09/15 04:53:30;;;;;;;7.72;6.10;;;14.70;99.90;;;;;;5052787;28;20047;-78
2022/09/15 04:56:10;;;;;;;8.65;6.25;;;14.70;99.90;;;;;;5052781;28;20029;-77
2022/09/15 04:58:41;;;;;;;9.10;5.70;;;14.70;99.90;;;;;;5053253;28;20037;-79
2022/09/15 05:01:08;;;;;;;5.80;5.30;;;14.70;99.90;;;;;;5046260;28;20025;-79
2022/09/15 05:03:36;;;;;;;8.43;5.80;;;14.70;99.90;;;;;;5032098;28;20033;-80
2022/09/15 05:06:02;;;;;;;7.85;5.43;;;14.70;99.90;;;;;;5031352;28;20049;-80
2022/09/15 05:08:27;;;;;;;10.38;5.25;;;14.70;99.90;;;;;;5030781;28;20794;-78
2022/09/15 05:11:04;;;;;;;7.15;4.95;;;14.70;99.90;;;;;;5030851;28;20044;-78
2022/09/15 05:13:30;;;;;;;5.78;4.50;;;14.70;99.90;;;;;;5031615;28;20528;-79
2022/09/15 05:15:55;;;;;;;7.82;4.32;;;14.70;99.90;;;;;;5031597;28;20060;-80
2022/09/15 05:18:21;;;;;;;14.30;5.68;;;14.70;99.90;;;;;;5031331;28;20099;-79
2022/09/15 05:20:48;;;;;;;6.35;4.82;;;14.80;99.90;;;;;;5033574;28;20045;-78
2022/09/15 05:23:13;;;;;;;6.38;4.50;;;14.70;99.90;;;;;;5036888;28;20362;-79
2022/09/15 05:25:42;;;;;;;9.48;4.88;;;14.70;99.90;;;;;;5035196;28;20076;-79
2022/09/15 05:28:10;;;;;;;8.45;5.20;;;14.70;99.90;;;;;;5034760;28;20036;-79
2022/09/15 05:30:38;;;;;;;7.20;5.15;;;14.70;99.90;;;;;;5037347;28;20581;-79
2022/09/15 05:33:04;;;;;;;7.07;4.30;;;14.70;99.90;;;;;;5035314;28;20041;-78
2022/09/15 05:35:30;;;;;;;6.63;4.50;;;14.70;99.90;;;;;;5035382;28;20017;-79
2022/09/15 05:37:56;;;;;;;5.80;4.32;;;14.80;99.90;;;;;;5034582;28;20030;-79
2022/09/15 05:40:21;;;;;;;8.05;4.57;;;14.70;99.90;;;;;;5038170;28;20022;-79
2022/09/15 05:42:47;;;;;;;6.68;4.82;;;14.70;99.90;;;;;;5035906;28;20454;-79
2022/09/15 05:45:12;;;;;;;6.68;5.05;;;14.70;99.90;;;;;;5035130;28;20521;-78
2022/09/15 05:47:39;;;;;;;5.13;4.07;;;14.70;99.90;;;;;;5035906;28;20064;-78
2022/09/15 05:50:05;;;;;;;6.40;5.05;;;14.70;99.90;;;;;;5038439;28;20040;-78
2022/09/15 05:52:31;;;;;;;7.00;4.40;;;14.70;99.90;;;;;;5034476;28;20030;-79
2022/09/15 05:54:56;;;;;;;8.95;4.22;;;14.80;99.90;;;;;;5038218;28;20547;-78
2022/09/15 05:57:22;;;;;;;5.57;4.70;;;14.80;99.90;;;;;;5034769;28;20017;-78
2022/09/15 05:59:47;;;;;;;7.18;4.88;;;14.70;99.90;;;;;;5037503;28;20017;-79
2022/09/15 06:02:13;;;;;;;4.82;4.28;;;14.80;99.90;;;;;;5050094;28;20052;-79
2022/09/15 06:04:40;;;;;;;9.15;4.00;;;14.80;99.90;;;;;;5036191;28;20018;-79
2022/09/15 06:07:05;;;;;;;8.70;3.85;;;14.90;99.90;;;;;;5035374;28;20029;-80
2022/09/15 06:09:31;;;;;;;4.95;3.33;;;15.00;99.90;;;;;;5035371;28;20025;-79
2022/09/15 06:11:56;;;;;;;3.88;2.95;;;15.00;99.90;;;;;;5036111;28;20116;-78
2022/09/15 06:14:22;;;;;;;8.55;3.65;;;15.10;99.90;;;;;;5036941;28;20061;-79
2022/09/15 06:16:48;;;;;;;6.45;3.40;;;15.20;99.90;;;;;;5047105;28;20049;-80
2022/09/15 06:19:13;;;;;;;5.40;3.22;;;15.30;99.90;;;;;;5035335;28;20034;-79
2022/09/15 06:21:39;;;;;;;6.65;3.47;;;15.30;99.90;;;;;;5037103;28;20096;-78
2022/09/15 06:24:05;;;;;;;7.82;3.90;;;15.30;99.90;;;;;;5034378;28;20131;-80
2022/09/15 06:26:32;;;;;;;7.25;3.88;;;15.40;99.90;;;;;;5034401;28;20055;-80
2022/09/15 06:29:02;;;;;;;5.88;3.65;;;15.40;99.90;;;;;;5034968;28;20029;-78
2022/09/15 06:31:32;;;;;;;5.15;3.78;;;15.50;99.90;;;;;;5035323;28;20124;-78
2022/09/15 06:33:59;;;;;;;6.10;3.50;;;15.50;99.90;;;;;;5041132;28;20045;-78
2022/09/15 06:36:26;;;;;;;7.57;3.55;;;15.50;99.90;;;;;;5036787;28;20030;-78
2022/09/15 06:38:52;;;;;;;4.88;3.33;;;15.50;99.90;;;;;;5035603;28;20100;-80
2022/09/15 06:41:18;;;;;;;4.47;2.65;;;15.50;99.90;;;;;;5040245;28;20048;-80
2022/09/15 06:43:45;;;;;;;7.45;2.60;;;15.50;99.90;;;;;;5037555;28;20018;-79
2022/09/15 06:46:16;;;;;;;5.38;3.28;;;15.60;99.90;;;;;;5037234;28;20025;-79
2022/09/15 06:48:42;;;;;;;11.38;3.03;;;15.60;99.90;;;;;;5035679;28;20017;-80
2022/09/15 06:51:10;;;;;;;6.15;3.17;;;15.60;99.90;;;;;;5044653;28;20036;-79
2022/09/15 06:53:37;;;;;;;5.70;2.95;;;15.70;99.90;;;;;;5056547;28;20440;-79
2022/09/15 06:56:06;;;;;;;3.33;2.30;;;15.80;99.90;;;;;;5053699;28;20030;-78
2022/09/15 06:58:34;;;;;;;5.32;2.28;;;15.70;99.90;;;;;;5057364;28;20017;-79
2022/09/15 07:01:02;;;;;;;3.78;2.53;;;15.80;99.90;;;;;;5055330;28;20029;-78
2022/09/15 07:03:28;;;;;;;5.93;2.58;;;15.80;99.90;;;;;;5044449;28;20025;-79
2022/09/15 07:05:54;;;;;;;5.75;2.47;;;15.90;99.90;;;;;;5048871;28;20535;-79
2022/09/15 07:08:19;;;;;;;8.85;2.30;;;15.90;99.90;;;;;;5035613;28;20408;-79
2022/09/15 07:10:45;;;;;;;7.63;2.08;;;15.90;99.90;;;;;;5034580;28;20504;-80
2022/09/15 07:13:11;;;;;;;12.75;3.25;;;16.00;99.90;;;;;;5035161;28;20367;-80
2022/09/15 07:15:37;;;;;;;5.07;3.03;;;16.10;99.90;;;;;;5035416;28;20022;-79
2022/09/15 07:18:02;;;;;;;4.18;2.35;;;16.10;99.90;;;;;;5049505;28;20377;-77
2022/09/15 07:20:28;;;;;;;5.75;2.58;;;16.20;99.90;;;;;;5057233;28;20020;-78
2022/09/15 07:22:55;;;;;;;4.90;2.72;;;16.30;99.90;;;;;;5059032;28;20128;-80
2022/09/15 07:25:20;;;;;;;5.40;2.50;;;16.30;99.90;;;;;;5035441;28;20034;-78
2022/09/15 07:27:47;;;;;;;4.18;2.05;;;16.30;99.90;;;;;;5032957;28;20152;-79
2022/09/15 07:30:13;;;;;;;8.35;2.63;;;16.40;99.90;;;;;;5048347;28;20112;-79
2022/09/15 07:32:39;;;;;;;4.65;1.95;;;16.50;99.90;;;;;;5048039;28;20033;-78
2022/09/15 07:35:06;;;;;;;5.50;1.95;;;16.50;99.90;;;;;;5048165;28;20090;-79
2022/09/15 07:37:32;;;;;;;4.88;1.90;;;16.50;99.90;;;;;;5050819;28;20052;-79
2022/09/15 07:39:58;;;;;;;3.75;2.08;;;16.50;99.90;;;;;;5050434;28;20060;-80
2022/09/15 07:42:24;;;;;;;3.97;1.92;;;16.60;99.90;;;;;;5049635;28;20064;-79
2022/09/15 07:44:50;;;;;;;4.70;1.58;;;16.60;99.90;;;;;;5051326;28;20035;-79
2022/09/15 07:47:16;;;;;;;9.65;2.17;;;16.60;99.90;;;;;;5056733;28;20057;-79
2022/09/15 07:49:42;;;;;;;3.15;1.70;;;16.50;99.90;;;;;;5061603;28;20100;-79
2022/09/15 07:52:08;;;;;;;5.30;1.63;;;16.50;99.90;;;;;;5062530;28;20021;-78
2022/09/15 07:54:37;;;;;;;5.30;1.88;;;16.50;99.90;;;;;;5059277;28;20164;-79
2022/09/15 07:57:05;;;;;;;7.88;1.98;;;16.40;99.90;;;;;;5060430;28;20025;-79
2022/09/15 07:59:30;;;;;;;8.77;2.40;;;16.40;99.90;;;;;;5056342;28;20033;-77
2022/09/15 08:01:56;;;;;;;9.15;1.83;;;16.30;99.90;;;;;;5058457;28;20417;-78
2022/09/15 08:04:22;;;;;;;4.72;1.70;;;16.20;99.90;;;;;;5044651;28;20060;-79
2022/09/15 08:06:47;;;;;;;7.25;2.45;;;16.10;99.90;;;;;;5052379;28;20415;-78
2022/09/15 08:09:16;;;;;;;4.55;1.63;;;16.10;99.90;;;;;;5042278;28;20017;-78
2022/09/15 08:11:42;;;;;;;5.60;1.75;;;16.10;99.90;;;;;;5032075;28;20028;-79
2022/09/15 08:14:07;;;;;;;3.60;1.65;;;16.20;99.90;;;;;;5031051;28;20477;-78
2022/09/15 08:16:33;;;;;;;9.15;2.83;;;16.30;99.90;;;;;;5039716;28;20024;-79
2022/09/15 08:18:59;;;;;;;8.05;2.10;;;16.50;99.90;;;;;;5039538;28;20076;-78
2022/09/15 08:21:26;;;;;;;8.35;2.38;;;16.60;99.90;;;;;;5038901;28;20040;-79
2022/09/15 08:23:54;;;;;;;7.38;1.75;;;16.80;99.90;;;;;;5033736;28;20130;-80
2022/09/15 08:26:20;;;;;;;7.75;1.88;;;17.00;99.90;;;;;;5032003;28;20072;-75
2022/09/15 08:28:46;;;;;;;7.32;1.85;;;17.00;99.90;;;;;;5036502;28;20481;-80
2022/09/15 08:31:13;;;;;;;8.32;1.40;;;17.20;99.90;;;;;;5050448;28;20025;-87
2022/09/15 08:33:39;;;;;;;17.60;2.70;;;17.30;99.90;;;;;;5059586;28;20040;-87
2022/09/15 08:36:10;;;;;;;4.38;1.67;;;17.40;99.90;;;;;;5057648;28;20481;-85
2022/09/15 08:38:38;;;;;;;4.95;1.33;;;17.50;99.90;;;;;;5049637;28;20048;-83
2022/09/15 08:41:08;;;;;;;7.97;1.65;;;17.50;99.90;;;;;;5042487;28;20483;-83
2022/09/15 08:44:18;;;;;;;6.10;1.70;;;17.60;99.90;;;;;;5040147;28;20048;-84
2022/09/15 08:47:12;;;;;;;3.83;1.25;;;17.60;99.90;;;;;;5033916;28;20063;-84
2022/09/15 08:50:01;;;;;;;4.25;1.38;;;17.80;99.90;;;;;;5035890;28;20029;-81
2022/09/15 08:52:44;;;;;;;8.05;1.90;;;17.90;99.90;;;;;;5054341;28;20021;-83
2022/09/15 08:55:40;;;;;;;3.88;1.15;;;17.80;99.90;;;;;;5053866;28;20480;-82
2022/09/15 08:58:13;;;;;;;5.15;2.00;;;17.70;99.90;;;;;;5040931;28;20451;-81
2022/09/15 09:00:40;;;;;;;6.07;1.42;;;17.20;99.90;;;;;;5054002;28;20075;-84
2022/09/15 09:03:24;;;;;;;4.25;1.15;;;16.60;99.90;;;;;;5045837;28;20389;-80
2022/09/15 09:06:02;;;;;;;4.22;0.98;;;16.20;99.90;;;;;;5050040;28;20031;-80
2022/09/15 09:08:52;;;;;;;5.45;0.95;;;15.80;99.90;;;;;;5045259;28;20048;-79
2022/09/15 09:11:49;;;;;;;0.95;0.60;;;15.60;99.90;;;;;;5053666;28;20506;-79
2022/09/15 09:14:23;;;;;;;11.57;1.70;;;15.50;99.90;;;;;;5046172;28;20453;-81
2022/09/15 09:17:13;;;;;;;4.32;1.40;;;15.50;99.90;;;;;;5032706;28;20057;-80
2022/09/15 09:19:56;;;;;;;4.57;1.30;;;15.60;99.90;;;;;;5033742;28;20100;-81
2022/09/15 09:22:30;;;;;;;6.00;1.60;;;15.70;99.90;;;;;;5046268;28;20108;-80
2022/09/15 09:24:58;;;;;;;7.57;1.05;;;15.70;99.90;;;;;;5032907;28;20053;-76
2022/09/15 09:27:29;;;;;;;3.00;1.08;;;15.80;99.90;;;;;;5034950;28;20036;-81
2022/09/15 09:30:14;;;;;;;8.57;1.60;;;16.00;99.90;;;;;;5035077;28;20044;-81
2022/09/15 09:33:03;;;;;;;3.90;1.27;;;16.10;99.90;;;;;;5033982;28;20026;-80
2022/09/15 09:35:45;;;;;;;7.43;0.90;;;16.30;99.90;;;;;;5032913;28;20021;-80
2022/09/15 09:38:18;;;;;;;7.32;0.90;;;16.40;99.90;;;;;;5035595;28;20057;-80
2022/09/15 09:40:44;;;;;;;4.15;1.23;;;16.60;99.90;;;;;;5033790;28;20419;-81
2022/09/15 09:43:10;;;;;;;2.20;0.63;;;16.70;99.90;;;;;;5032716;28;20037;-81
2022/09/15 09:45:36;;;;;;;4.07;1.30;;;16.90;99.90;;;;;;5034040;28;20108;-81
2022/09/15 09:48:10;;;;;;;4.18;0.90;;;17.10;99.90;;;;;;5039508;28;20121;-82
2022/09/15 09:50:41;;;;;;;8.88;1.60;;;17.20;99.90;;;;;;5043435;28;20091;-81
2022/09/15 09:53:32;;;;;;;6.30;1.38;;;17.30;99.90;;;;;;5053366;28;20033;-81
2022/09/15 09:56:21;;;;;;;3.45;0.90;;;17.30;99.90;;;;;;5054542;28;20067;-79
2022/09/15 09:58:50;;;;;;;4.45;0.80;;;17.40;99.90;;;;;;5052482;28;20029;-80
2022/09/15 10:01:19;;;;;;;6.32;1.50;;;17.40;99.90;;;;;;5053336;28;20029;-80
2022/09/15 10:03:45;;;;;;;5.90;1.58;;;17.40;99.90;;;;;;5053557;28;20017;-80
2022/09/15 10:06:21;;;;;;;5.43;0.93;;;17.50;99.90;;;;;;5052950;28;20031;-80
2022/09/15 10:09:17;;;;;;;8.63;1.83;;;17.50;99.90;;;;;;5057279;28;20025;-81
2022/09/15 10:11:52;;;;;;;5.68;1.35;;;17.60;99.90;;;;;;5054713;28;20411;-80
2022/09/15 10:14:28;;;;;;;4.13;0.80;;;17.80;99.90;;;;;;5057557;28;20032;-81
2022/09/15 10:17:00;;;;;;;3.85;0.98;;;18.00;99.90;;;;;;5056938;28;20048;-80
2022/09/15 10:19:28;;;;;;;6.53;1.38;;;18.20;99.90;;;;;;5055900;28;20052;-80
2022/09/15 10:21:55;;;;;;;2.50;0.98;;;18.40;99.90;;;;;;5057307;28;20021;-80
2022/09/15 10:24:26;;;;;;;2.90;0.70;;;18.40;99.90;;;;;;5055859;28;20132;-81
2022/09/15 10:27:05;;;;;;;3.45;1.10;;;18.50;99.90;;;;;;5056816;28;20017;-81
2022/09/15 10:29:38;;;;;;;4.07;1.17;;;18.60;99.90;;;;;;5057998;28;20046;-80
2022/09/15 10:32:25;;;;;;;6.63;1.80;;;18.60;99.90;;;;;;5057488;28;20412;-80
2022/09/15 10:35:14;;;;;;;4.47;1.10;;;18.70;99.90;;;;;;5055268;28;20039;-77
2022/09/15 10:38:10;;;;;;;5.57;1.00;;;18.80;99.90;;;;;;5057072;28;20048;-79
2022/09/15 10:40:43;;;;;;;7.45;1.13;;;18.90;99.90;;;;;;5041940;28;20026;-79
2022/09/15 10:43:30;;;;;;;3.20;0.90;;;19.10;99.90;;;;;;5036923;28;20029;-79
2022/09/15 10:46:14;;;;;;;4.28;0.85;;;19.30;99.50;;;;;;5038119;28;20497;-77
2022/09/15 10:49:06;;;;;;;10.70;1.52;;;19.50;98.50;;;;;;5035481;28;20061;-74
2022/09/15 10:51:42;;;;;;;3.53;1.13;;;19.70;97.70;;;;;;5047964;28;20047;-78
2022/09/15 10:54:34;;;;;;;3.42;1.10;;;19.80;97.50;;;;;;5054848;28;20033;-79
2022/09/15 10:57:13;;;;;;;4.22;1.00;;;19.80;96.30;;;;;;5039594;28;20028;-78
2022/09/15 11:00:14;;;;;;;4.43;0.98;;;19.70;96.00;;;;;;5034407;28;20025;-79
2022/09/15 11:02:56;;;;;;;8.02;1.35;;;19.70;96.80;;;;;;5043649;28;20048;-78
2022/09/15 11:05:57;;;;;;;9.13;1.20;;;19.60;96.60;;;;;;5034968;28;20036;-76
2022/09/15 11:08:40;;;;;;;2.10;1.13;;;19.60;97.10;;;;;;5033208;28;20044;-77
2022/09/15 11:11:44;;;;;;;9.02;1.00;;;19.50;95.70;;;;;;5040532;28;20114;-77
2022/09/15 11:14:34;;;;;;;3.50;1.10;;;19.50;97.00;;;;;;5048499;28;20036;-78
2022/09/15 11:17:17;;;;;;;6.22;1.20;;;19.50;98.20;;;;;;5034514;28;20010;-77
2022/09/15 11:20:11;;;;;;;1.27;1.00;;;19.50;94.80;;;;;;5033849;28;20076;-78
2022/09/15 11:22:52;;;;;;;1.08;0.60;;;19.60;95.10;;;;;;5034568;28;20104;-77
2022/09/15 11:25:25;;;;;;;1.90;0.90;;;19.50;93.80;;;;;;5038169;28;20504;-71
2022/09/15 11:28:02;;;;;;;3.25;1.30;;;19.50;94.90;;;;;;5036600;28;20029;-76
2022/09/15 11:30:45;;;;;;;1.58;0.65;;;19.50;95.30;;;;;;5052707;28;20040;-77
2022/09/15 11:33:16;;;;;;;2.72;0.60;;;19.40;94.60;;;;;;5054304;28;20428;-75
2022/09/15 11:36:00;;;;;;;3.42;0.80;;;19.20;94.30;;;;;;5054753;28;20385;-71
2022/09/15 11:38:54;;;;;;;2.45;0.60;;;19.30;95.50;;;;;;5054609;28;20033;-78
2022/09/15 11:41:28;;;;;;;5.70;0.70;;;19.30;95.90;;;;;;5039331;28;20033;-77
2022/09/15 11:44:28;;;;;;;7.28;1.50;;;19.30;94.00;;;;;;5039041;28;20017;-77
2022/09/15 11:47:22;;;;;;;5.72;0.95;;;19.20;94.50;;;;;;5042902;28;20033;-77
2022/09/15 11:50:16;;;;;;;6.57;1.85;;;19.10;95.30;;;;;;5050905;28;20052;-76
2022/09/15 11:52:45;;;;;;;8.18;1.00;;;19.20;95.80;;;;;;5035744;28;20037;-76
2022/09/15 11:55:33;;;;;;;5.43;1.67;;;19.30;96.20;;;;;;5042374;28;20034;-77
2022/09/15 11:58:15;;;;;;;5.80;0.95;;;19.30;96.60;;;;;;5037607;28;20455;-76
2022/09/15 12:00:51;;;;;;;3.33;1.30;;;19.30;96.40;;;;;;5035670;28;20018;-76
2022/09/15 12:03:34;;;;;;;2.85;1.13;;;19.20;96.40;;;;;;5034287;28;20018;-76
2022/09/15 12:06:13;;;;;;;2.17;0.90;;;19.10;96.10;;;;;;5033950;28;20018;-76
2022/09/15 12:08:45;;;;;;;5.68;1.05;;;19.10;95.00;;;;;;5036833;28;20028;-76
2022/09/15 12:11:18;;;;;;;9.43;1.08;;;19.00;95.60;;;;;;5038778;28;20022;-77
2022/09/15 12:13:44;;;;;;;4.13;1.30;;;19.00;96.40;;;;;;5046203;28;20013;-77
2022/09/15 12:16:11;;;;;;;10.43;1.83;;;19.10;97.20;;;;;;5040923;28;20100;-76
2022/09/15 12:18:47;;;;;;;5.90;1.27;;;19.00;97.00;;;;;;5042035;28;20400;-76
2022/09/15 12:21:36;;;;;;;3.25;0.95;;;19.00;96.40;;;;;;5044467;28;20030;-77
2022/09/15 12:24:44;;;;;;;5.68;0.75;;;19.00;96.50;;;;;;5048205;28;20045;-77
2022/09/15 12:27:15;;;;;;;1.73;0.82;;;19.10;95.70;;;;;;5034104;28;20041;-77
2022/09/15 12:29:51;;;;;;;4.70;1.00;;;19.20;95.80;;;;;;5041298;28;20100;-76
2022/09/15 12:32:32;;;;;;;2.83;0.90;;;19.20;96.00;;;;;;5037382;28;20052;-77
2022/09/15 12:35:23;;;;;;;5.43;1.00;;;19.30;96.30;;;;;;5032557;28;20041;-77
2022/09/15 12:37:56;;;;;;;5.80;1.67;;;19.40;97.50;;;;;;5033250;28;20032;-77
2022/09/15 12:40:36;;;;;;;2.92;0.95;;;19.40;97.10;;;;;;5040837;28;20021;-76
2022/09/15 12:43:15;;;;;;;7.82;0.93;;;19.30;97.20;;;;;;5037715;28;20052;-76
2022/09/15 12:45:52;;;;;;;5.45;1.08;;;19.30;97.60;;;;;;5034092;28;20108;-76
2022/09/15 12:48:36;;;;;;;3.00;1.38;;;19.20;97.80;;;;;;5032061;28;20049;-77
2022/09/15 12:51:04;;;;;;;6.93;0.80;;;19.30;98.10;;;;;;5041117;28;20067;-75
2022/09/15 12:53:33;;;;;;;8.82;1.77;;;19.30;98.10;;;;;;5052210;28;20147;-76
2022/09/15 12:56:06;;;;;;;5.20;1.23;;;19.40;98.20;;;;;;5050603;28;20021;-77
2022/09/15 12:58:48;;;;;;;5.25;1.20;;;19.50;98.30;;;;;;5033053;28;20059;-76
2022/09/15 13:01:23;;;;;;;2.30;0.98;;;19.60;97.60;;;;;;5037641;28;20025;-76
2022/09/15 13:03:48;;;;;;;2.78;0.85;;;19.60;96.90;;;;;;5032855;28;20021;-76
2022/09/15 13:06:21;;;;;;;5.55;0.88;;;19.60;97.40;;;;;;5033525;28;20029;-76
2022/09/15 13:08:50;;;;;;;10.15;1.25;;;19.50;96.40;;;;;;5031471;28;20109;-77
2022/09/15 13:11:35;;;;;;;2.28;0.60;;;19.40;95.70;;;;;;5030681;28;20013;-72